createdAt,value
2019-01-13T00:02:00.559Z,100821.86
2019-01-13T00:04:31.476Z,100823.55
2019-01-13T00:07:01.779Z,100826.73
2019-01-13T00:09:33.027Z,100821.79
2019-01-13T00:12:04.850Z,100818.95
2019-01-13T00:14:35.183Z,100824.42
2019-01-13T00:17:06.185Z,100817.55
2019-01-13T00:19:36.507Z,100815.59
2019-01-13T00:22:09.742Z,100816.53
2019-01-13T00:24:40.640Z,100814.05
2019-01-13T00:27:11.471Z,100824.36
2019-01-13T00:29:42.217Z,100808.35
2019-01-13T00:32:12.541Z,100803.28
2019-01-13T00:34:43.279Z,100801.86
2019-01-13T00:37:14.094Z,100800.36
2019-01-13T00:39:45.771Z,100806.82
2019-01-13T00:42:17.118Z,100806.16
2019-01-13T00:44:47.498Z,100798.91
2019-01-13T00:47:18.260Z,100805.59
2019-01-13T00:49:48.550Z,100810.37
2019-01-13T00:52:18.827Z,100810.55
2019-01-13T00:54:50.494Z,100819.08
2019-01-13T00:57:21.246Z,100811.31
2019-01-13T00:59:52.552Z,100801.94
2019-01-13T01:02:22.847Z,100810.12
2019-01-13T01:04:53.204Z,100811.19
2019-01-13T01:07:24.168Z,100815.98
2019-01-13T01:09:55.417Z,100801.28
2019-01-13T01:12:27.223Z,100807.78
2019-01-13T01:14:57.574Z,100798.47
2019-01-13T01:17:28.416Z,100789.74
2019-01-13T01:19:58.770Z,100781.67
2019-01-13T01:22:29.074Z,100785.14
2019-01-13T01:24:59.337Z,100779.10
2019-01-13T01:27:29.711Z,100781.47
2019-01-13T01:30:00.561Z,100781.25
2019-01-13T01:32:30.852Z,100781.22
2019-01-13T01:35:01.153Z,100772.37
2019-01-13T01:37:31.459Z,100769.27
2019-01-13T01:40:01.831Z,100772.69
2019-01-13T01:42:32.571Z,100782.48
2019-01-13T01:45:03.356Z,100784.47
2019-01-13T01:47:33.630Z,100786.91
2019-01-13T01:50:05.444Z,100796.13
2019-01-13T01:52:36.182Z,100792.72
2019-01-13T01:55:08.140Z,100781.28
2019-01-13T01:57:38.426Z,100778.56
2019-01-13T02:00:14.464Z,100778.46
2019-01-13T02:02:45.368Z,100772.24
2019-01-13T02:05:15.866Z,100774.75
2019-01-13T02:07:46.533Z,100769.06
2019-01-13T02:10:20.424Z,100763.97
2019-01-13T02:12:52.586Z,100753.25
2019-01-13T02:15:25.962Z,100758.38
2019-01-13T02:17:56.371Z,100760.23
2019-01-13T02:20:26.842Z,100757.47
2019-01-13T02:22:57.789Z,100760.61
2019-01-13T02:25:29.406Z,100755.63
2019-01-13T02:28:00.717Z,100741.13
2019-01-13T02:30:31.080Z,100728.20
2019-01-13T02:33:02.393Z,100720.45
2019-01-13T02:35:33.146Z,100717.78
2019-01-13T02:38:03.468Z,100714.70
2019-01-13T02:40:33.841Z,100709.92
2019-01-13T02:43:04.152Z,100713.45
2019-01-13T02:45:35.039Z,100724.50
2019-01-13T02:48:06.206Z,100725.06
2019-01-13T02:50:36.515Z,100713.68
2019-01-13T02:53:06.840Z,100710.09
2019-01-13T02:55:38.598Z,100705.48
2019-01-13T02:58:08.943Z,100705.31
2019-01-13T03:00:39.249Z,100705.73
2019-01-13T03:03:12.032Z,100697.64
2019-01-13T03:05:42.359Z,100707.64
2019-01-13T03:08:13.217Z,100706.56
2019-01-13T03:10:43.497Z,100723.55
2019-01-13T03:13:14.947Z,100713.81
2019-01-13T03:15:45.237Z,100713.55
2019-01-13T03:18:17.167Z,100705.92
2019-01-13T03:20:47.461Z,100703.74
2019-01-13T03:23:17.737Z,100715.67
2019-01-13T03:25:48.094Z,100706.88
2019-01-13T03:28:18.980Z,100712.44
2019-01-13T03:30:49.305Z,100720.17
2019-01-13T03:33:19.635Z,100716.95
2019-01-13T03:35:50.385Z,100717.31
2019-01-13T03:38:21.187Z,100716.77
2019-01-13T03:40:51.666Z,100712.15
2019-01-13T03:43:21.957Z,100712.98
2019-01-13T03:45:52.699Z,100701.48
2019-01-13T03:48:23.509Z,100689.41
2019-01-13T03:50:54.271Z,100688.79
2019-01-13T03:53:24.616Z,100692.95
2019-01-13T03:55:54.938Z,100676.76
2019-01-13T03:58:25.710Z,100674.56
2019-01-13T04:00:56.003Z,100658.88
2019-01-13T04:03:26.517Z,100645.24
2019-01-13T04:05:56.791Z,100629.50
2019-01-13T04:08:29.212Z,100628.25
2019-01-13T04:10:59.511Z,100616.58
2019-01-13T04:13:30.808Z,100619.00
2019-01-13T04:16:01.929Z,100623.09
2019-01-13T04:18:32.664Z,100627.16
2019-01-13T04:21:02.993Z,100627.52
2019-01-13T04:23:34.252Z,100625.72
2019-01-13T04:26:04.640Z,100617.59
2019-01-13T04:28:35.610Z,100618.05
2019-01-13T04:31:05.914Z,100607.94
2019-01-13T04:33:36.570Z,100589.20
2019-01-13T04:36:06.833Z,100592.97
2019-01-13T04:38:38.139Z,100585.22
2019-01-13T04:41:08.438Z,100570.78
2019-01-13T04:43:38.708Z,100561.00
2019-01-13T04:46:09.427Z,100559.19
2019-01-13T04:48:40.181Z,100560.18
2019-01-13T04:51:10.772Z,100555.31
2019-01-13T04:53:42.122Z,100553.70
2019-01-13T04:56:13.696Z,100553.16
2019-01-13T04:58:44.477Z,100550.54
2019-01-13T05:01:15.088Z,100557.05
2019-01-13T05:03:45.751Z,100549.11
2019-01-13T05:06:16.047Z,100549.67
2019-01-13T05:08:46.835Z,100542.13
2019-01-13T05:11:18.218Z,100534.41
2019-01-13T05:13:49.428Z,100534.56
2019-01-13T05:16:21.141Z,100519.39
2019-01-13T05:18:51.931Z,100520.95
2019-01-13T05:21:22.257Z,100509.25
2019-01-13T05:23:52.527Z,100494.58
2019-01-13T05:26:24.268Z,100492.77
2019-01-13T05:28:55.004Z,100489.05
2019-01-13T05:31:25.331Z,100483.83
2019-01-13T05:33:55.702Z,100476.20
2019-01-13T05:36:25.978Z,100464.42
2019-01-13T05:38:56.813Z,100466.81
2019-01-13T05:41:27.180Z,100470.49
2019-01-13T05:43:58.009Z,100460.07
2019-01-13T05:46:28.306Z,100437.27
2019-01-13T05:48:59.044Z,100435.06
2019-01-13T05:51:29.411Z,100432.98
2019-01-13T05:53:59.695Z,100433.31
2019-01-13T05:56:31.341Z,100432.34
2019-01-13T05:59:02.085Z,100432.76
2019-01-13T06:01:33.957Z,100427.06
2019-01-13T06:04:04.395Z,100432.11
2019-01-13T06:06:34.699Z,100423.88
2019-01-13T06:09:07.851Z,100414.30
2019-01-13T06:11:38.257Z,100416.44
2019-01-13T06:14:10.805Z,100411.81
2019-01-13T06:16:41.208Z,100410.88
2019-01-13T06:19:12.087Z,100410.27
2019-01-13T06:21:42.412Z,100410.92
2019-01-13T06:24:12.695Z,100414.89
2019-01-13T06:26:43.043Z,100411.45
2019-01-13T06:29:13.875Z,100424.44
2019-01-13T06:31:45.029Z,100422.62
2019-01-13T06:34:15.319Z,100419.36
2019-01-13T06:36:45.599Z,100413.87
2019-01-13T06:39:16.356Z,100415.41
2019-01-13T06:41:46.720Z,100414.85
2019-01-13T06:44:17.100Z,100420.00
2019-01-13T06:46:47.372Z,100420.22
2019-01-13T06:49:18.999Z,100417.69
2019-01-13T06:51:50.197Z,100417.55
2019-01-13T06:54:20.592Z,100416.84
2019-01-13T06:56:51.054Z,100413.98
2019-01-13T06:59:22.251Z,100416.85
2019-01-13T07:01:52.527Z,100404.62
2019-01-13T07:04:24.420Z,100402.93
2019-01-13T07:06:54.782Z,100406.66
2019-01-13T07:09:25.622Z,100404.41
2019-01-13T07:11:55.892Z,100403.09
2019-01-13T07:14:27.425Z,100399.72
2019-01-13T07:16:57.696Z,100400.52
2019-01-13T07:19:29.943Z,100400.81
2019-01-13T07:22:00.249Z,100397.59
2019-01-13T07:24:30.548Z,100397.61
2019-01-13T07:27:01.330Z,100389.92
2019-01-13T07:29:31.619Z,100399.38
2019-01-13T07:32:02.392Z,100388.94
2019-01-13T07:34:32.693Z,100387.90
2019-01-13T07:37:02.979Z,100392.73
2019-01-13T07:39:33.283Z,100390.38
2019-01-13T07:42:04.063Z,100385.72
2019-01-13T07:44:34.344Z,100376.48
2019-01-13T07:47:04.638Z,100372.04
2019-01-13T07:49:34.964Z,100374.69
2019-01-13T07:52:05.911Z,100366.36
2019-01-13T07:54:37.249Z,100361.27
2019-01-13T07:57:07.535Z,100361.02
2019-01-13T07:59:37.837Z,100357.98
2019-01-13T08:02:08.635Z,100351.23
2019-01-13T08:04:39.025Z,100355.70
2019-01-13T08:07:09.291Z,100345.36
2019-01-13T08:09:39.609Z,100332.30
2019-01-13T08:12:10.943Z,100341.45
2019-01-13T08:14:42.311Z,100345.19
2019-01-13T08:17:12.646Z,100347.60
2019-01-13T08:19:42.923Z,100339.53
2019-01-13T08:22:13.230Z,100336.11
2019-01-13T08:24:44.067Z,100331.27
2019-01-13T08:27:14.871Z,100327.98
2019-01-13T08:29:45.145Z,100341.00
2019-01-13T08:32:15.494Z,100335.33
2019-01-13T08:34:45.820Z,100334.08
2019-01-13T08:37:16.659Z,100334.77
2019-01-13T08:39:46.942Z,100327.53
2019-01-13T08:42:17.281Z,100325.73
2019-01-13T08:44:47.635Z,100316.14
2019-01-13T08:47:17.939Z,100308.02
2019-01-13T08:49:48.844Z,100309.62
2019-01-13T08:52:19.252Z,100312.98
2019-01-13T08:54:49.537Z,100308.48
2019-01-13T08:57:20.213Z,100311.27
2019-01-13T08:59:50.867Z,100311.03
2019-01-13T09:02:21.721Z,100315.41
2019-01-13T09:04:52.094Z,100308.88
2019-01-13T09:07:22.576Z,100309.72
2019-01-13T09:09:53.379Z,100302.25
2019-01-13T09:12:23.943Z,100302.95
2019-01-13T09:14:55.873Z,100292.91
2019-01-13T09:17:27.028Z,100301.63
2019-01-13T09:19:57.835Z,100300.59
2019-01-13T09:22:28.116Z,100296.50
2019-01-13T09:24:58.426Z,100294.45
2019-01-13T09:27:28.741Z,100286.08
2019-01-13T09:29:59.163Z,100273.78
2019-01-13T09:32:30.103Z,100285.00
2019-01-13T09:35:01.369Z,100269.78
2019-01-13T09:37:31.657Z,100269.89
2019-01-13T09:40:01.993Z,100259.06
2019-01-13T09:42:32.678Z,100259.22
2019-01-13T09:45:03.064Z,100259.71
2019-01-13T09:47:33.347Z,100256.52
2019-01-13T09:50:05.456Z,100263.98
2019-01-13T09:52:36.318Z,100267.75
2019-01-13T09:55:07.971Z,100260.05
2019-01-13T09:57:38.243Z,100250.59
2019-01-13T10:00:13.629Z,100253.13
2019-01-13T10:02:46.873Z,100257.25
2019-01-13T10:05:17.365Z,100255.83
2019-01-13T10:07:47.671Z,100258.31
2019-01-13T10:10:18.018Z,100256.20
2019-01-13T10:12:48.300Z,100258.08
2019-01-13T10:15:21.449Z,100253.39
2019-01-13T10:17:52.762Z,100246.50
2019-01-13T10:20:23.707Z,100235.84
2019-01-13T10:22:54.233Z,100222.86
2019-01-13T10:25:25.607Z,100223.31
2019-01-13T10:27:55.992Z,100218.22
2019-01-13T10:30:28.508Z,100216.80
2019-01-13T10:32:58.794Z,100197.33
2019-01-13T10:35:30.288Z,100202.13
2019-01-13T10:38:00.585Z,100221.99
2019-01-13T10:40:32.182Z,100222.63
2019-01-13T10:43:02.492Z,100214.34
2019-01-13T10:45:33.259Z,100212.11
2019-01-13T10:48:03.558Z,100222.53
2019-01-13T10:50:34.586Z,100211.08
2019-01-13T10:53:07.135Z,100195.59
2019-01-13T10:55:37.998Z,100190.88
2019-01-13T10:58:08.342Z,100187.89
2019-01-13T11:00:39.515Z,100187.55
2019-01-13T11:03:09.797Z,100172.63
2019-01-13T11:05:41.250Z,100165.02
2019-01-13T11:08:12.800Z,100154.14
2019-01-13T11:10:43.235Z,100143.11
2019-01-13T11:13:13.555Z,100142.08
2019-01-13T11:15:45.230Z,100134.08
2019-01-13T11:18:15.536Z,100129.33
2019-01-13T11:20:47.092Z,100129.93
2019-01-13T11:23:17.556Z,100121.01
2019-01-13T11:25:48.560Z,100121.03
2019-01-13T11:28:18.889Z,100117.94
2019-01-13T11:30:49.322Z,100119.03
2019-01-13T11:33:19.615Z,100115.14
2019-01-13T11:35:51.653Z,100110.64
2019-01-13T11:38:21.936Z,100108.55
2019-01-13T11:40:52.313Z,100111.79
2019-01-13T11:43:22.607Z,100105.63
2019-01-13T11:45:53.553Z,100102.54
2019-01-13T11:48:23.831Z,100084.16
2019-01-13T11:50:55.734Z,100076.16
2019-01-13T11:53:26.061Z,100064.34
2019-01-13T11:55:57.001Z,100072.30
2019-01-13T11:58:27.611Z,100069.89
2019-01-13T12:00:57.997Z,100066.42
2019-01-13T12:03:28.299Z,100070.05
2019-01-13T12:06:00.434Z,100060.95
2019-01-13T12:08:30.753Z,100072.41
2019-01-13T12:11:01.089Z,100061.77
2019-01-13T12:13:31.386Z,100052.45
2019-01-13T12:16:03.272Z,100052.99
2019-01-13T12:18:40.345Z,100041.88
2019-01-13T12:21:06.018Z,100040.22
2019-01-13T12:23:36.319Z,100030.80
2019-01-13T12:26:07.234Z,100025.44
2019-01-13T12:28:37.560Z,100019.31
2019-01-13T12:31:07.897Z,100024.57
2019-01-13T12:33:38.195Z,100020.53
2019-01-13T12:36:10.740Z,100020.33
2019-01-13T12:38:41.184Z,100016.14
2019-01-13T12:41:13.192Z,100013.57
2019-01-13T12:43:43.466Z,100011.28
2019-01-13T12:46:14.247Z,99994.90
2019-01-13T12:48:44.523Z,100000.28
2019-01-13T12:51:15.411Z,99986.67
2019-01-13T12:53:45.744Z,99984.47
2019-01-13T12:56:16.679Z,99992.41
2019-01-13T12:58:46.973Z,99987.75
2019-01-13T13:01:17.279Z,99988.27
2019-01-13T13:03:47.559Z,99980.43
2019-01-13T13:06:19.929Z,99980.55
2019-01-13T13:08:50.332Z,99973.83
2019-01-13T13:11:20.600Z,99971.55
2019-01-13T13:13:50.987Z,99969.68
2019-01-13T13:16:22.538Z,99961.41
2019-01-13T13:18:52.972Z,99946.60
2019-01-13T13:21:23.527Z,99936.84
2019-01-13T13:23:54.771Z,99957.08
2019-01-13T13:26:25.524Z,99953.30
2019-01-13T13:28:55.973Z,99955.72
2019-01-13T13:31:26.256Z,99950.69
2019-01-13T13:33:56.539Z,99948.34
2019-01-13T13:36:27.336Z,99937.45
2019-01-13T13:38:59.077Z,99923.43
2019-01-13T13:41:30.429Z,99921.06
2019-01-13T13:44:00.730Z,99923.53
2019-01-13T13:46:31.181Z,99923.22
2019-01-13T13:49:01.586Z,99930.45
2019-01-13T13:51:32.449Z,99932.83
2019-01-13T13:54:02.728Z,99932.00
2019-01-13T13:56:34.354Z,99928.02
2019-01-13T13:59:04.653Z,99930.94
2019-01-13T14:01:36.255Z,99924.52
2019-01-13T14:04:06.537Z,99917.41
2019-01-13T14:06:36.839Z,99913.42
2019-01-13T14:09:09.172Z,99909.24
2019-01-13T14:11:40.725Z,99896.48
2019-01-13T14:14:11.122Z,99902.21
2019-01-13T14:16:43.417Z,99891.72
2019-01-13T14:19:16.356Z,99890.27
2019-01-13T14:21:47.560Z,99886.68
2019-01-13T14:24:17.891Z,99884.09
2019-01-13T14:26:49.105Z,99896.33
2019-01-13T14:29:19.423Z,99899.88
2019-01-13T14:31:50.572Z,99891.27
2019-01-13T14:34:20.919Z,99889.38
2019-01-13T14:36:51.549Z,99880.58
2019-01-13T14:39:21.851Z,99880.43
2019-01-13T14:41:53.170Z,99872.91
2019-01-13T14:44:23.495Z,99892.98
2019-01-13T14:46:54.265Z,99884.84
2019-01-13T14:49:24.594Z,99880.98
2019-01-13T14:51:55.449Z,99878.77
2019-01-13T14:54:25.810Z,99880.73
2019-01-13T14:56:57.343Z,99882.38
2019-01-13T14:59:27.660Z,99877.02
2019-01-13T15:01:58.497Z,99865.84
2019-01-13T15:04:28.921Z,99871.64
2019-01-13T15:06:59.226Z,99863.78
2019-01-13T15:09:29.534Z,99855.45
2019-01-13T15:12:00.798Z,99846.01
2019-01-13T15:14:31.126Z,99862.53
2019-01-13T15:17:01.659Z,99854.20
2019-01-13T15:19:32.026Z,99852.45
2019-01-13T15:22:02.789Z,99847.16
2019-01-13T15:24:33.191Z,99855.38
2019-01-13T15:27:03.468Z,99852.81
2019-01-13T15:29:33.850Z,99844.68
2019-01-13T15:32:04.638Z,99841.72
2019-01-13T15:34:35.024Z,99838.79
2019-01-13T15:37:05.356Z,99841.13
2019-01-13T15:39:35.620Z,99848.23
2019-01-13T15:42:05.923Z,99852.49
2019-01-13T15:44:36.883Z,99852.16
2019-01-13T15:47:07.316Z,99861.11
2019-01-13T15:49:37.638Z,99858.89
2019-01-13T15:52:07.982Z,99858.98
2019-01-13T15:54:38.886Z,99865.89
2019-01-13T15:57:09.208Z,99879.77
2019-01-13T15:59:39.520Z,99875.42
2019-01-13T16:02:10.913Z,99877.82
2019-01-13T16:04:41.672Z,99886.64
2019-01-13T16:07:11.986Z,99880.06
2019-01-13T16:09:42.286Z,99875.78
2019-01-13T16:12:12.594Z,99876.48
2019-01-13T16:14:43.005Z,99876.52
2019-01-13T16:17:14.927Z,99872.71
2019-01-13T16:19:45.331Z,99872.56
2019-01-13T16:22:15.613Z,99875.44
2019-01-13T16:24:45.917Z,99870.81
2019-01-13T16:27:16.821Z,99867.86
2019-01-13T16:29:47.500Z,99855.98
2019-01-13T16:32:17.766Z,99857.63
2019-01-13T16:34:49.443Z,99859.62
2019-01-13T16:37:20.256Z,99858.14
2019-01-13T16:39:50.673Z,99853.14
2019-01-13T16:42:21.069Z,99852.41
2019-01-13T16:44:51.418Z,99845.16
2019-01-13T16:47:22.381Z,99843.11
2019-01-13T16:49:52.664Z,99837.78
2019-01-13T16:52:24.385Z,99834.19
2019-01-13T16:54:54.711Z,99835.73
2019-01-13T16:57:25.960Z,99831.89
2019-01-13T16:59:57.136Z,99829.17
2019-01-13T17:02:33.039Z,99834.59
2019-01-13T17:04:59.620Z,99829.50
2019-01-13T17:07:30.950Z,99829.11
2019-01-13T17:10:01.236Z,99824.94
2019-01-13T17:12:31.519Z,99811.45
2019-01-13T17:15:01.906Z,99815.73
2019-01-13T17:17:33.769Z,99811.47
2019-01-13T17:20:04.839Z,99811.96
2019-01-13T17:22:35.139Z,99808.58
2019-01-13T17:25:07.225Z,99805.22
2019-01-13T17:27:38.068Z,99800.05
2019-01-13T17:30:12.901Z,99806.60
2019-01-13T17:32:43.247Z,99800.51
2019-01-13T17:35:13.672Z,99800.21
2019-01-13T17:37:43.996Z,99790.89
2019-01-13T17:40:16.298Z,99795.87
2019-01-13T17:42:47.105Z,99782.81
2019-01-13T17:45:18.906Z,99781.31
2019-01-13T17:47:49.461Z,99769.84
2019-01-13T17:50:22.299Z,99772.02
2019-01-13T17:52:53.460Z,99787.55
2019-01-13T17:55:25.195Z,99768.64
2019-01-13T17:57:57.180Z,99789.27
2019-01-13T18:00:40.174Z,99776.75
2019-01-13T18:03:13.042Z,99788.57
2019-01-13T18:05:44.761Z,99791.84
2019-01-13T18:08:16.491Z,99777.41
2019-01-13T18:10:49.791Z,99774.16
2019-01-13T18:13:22.274Z,99756.22
2019-01-13T18:15:54.225Z,99769.25
2019-01-13T18:18:26.277Z,99794.70
2019-01-13T18:20:57.896Z,99776.56
2019-01-13T18:23:31.430Z,99780.30
2019-01-13T18:26:03.796Z,99759.62
2019-01-13T18:28:39.600Z,99755.27
2019-01-13T18:31:11.006Z,99759.86
2019-01-13T18:33:42.375Z,99751.28
2019-01-13T18:36:14.425Z,99746.12
2019-01-13T18:38:45.471Z,99755.48
2019-01-13T18:41:18.352Z,99748.41
2019-01-13T18:43:51.829Z,99753.96
2019-01-13T18:46:23.926Z,99766.92
2019-01-13T18:48:56.391Z,99755.40
2019-01-13T18:51:29.310Z,99765.99
2019-01-13T18:54:02.180Z,99755.55
2019-01-13T18:56:34.023Z,99759.83
2019-01-13T18:59:07.973Z,99763.80
2019-01-13T19:01:39.397Z,99758.44
2019-01-13T19:04:13.214Z,99761.14
2019-01-13T19:06:45.480Z,99746.98
2019-01-13T19:09:18.465Z,99752.88
2019-01-13T19:11:54.071Z,99757.63
2019-01-13T19:14:48.623Z,99744.56
2019-01-13T19:17:28.878Z,99767.57
2019-01-13T19:20:29.497Z,99774.35
2019-01-13T19:23:05.761Z,99784.36
2019-01-13T19:25:39.471Z,99783.38
2019-01-13T19:28:17.884Z,99804.13
2019-01-13T19:30:51.083Z,99815.91
2019-01-13T19:33:23.340Z,99813.08
2019-01-13T19:35:57.473Z,99833.20
2019-01-13T19:38:31.473Z,99834.16
2019-01-13T19:41:02.245Z,99863.20
2019-01-13T19:43:32.556Z,99894.59
2019-01-13T19:46:04.231Z,99887.42
2019-01-13T19:48:34.495Z,99875.26
2019-01-13T19:51:05.359Z,99862.03
2019-01-13T19:53:35.614Z,99835.78
2019-01-13T19:56:06.029Z,99837.89
2019-01-13T19:58:36.319Z,99836.42
2019-01-13T20:01:08.272Z,99833.87
2019-01-13T20:03:38.561Z,99840.45
2019-01-13T20:06:09.159Z,99842.98
2019-01-13T20:08:39.561Z,99832.30
2019-01-13T20:11:10.402Z,99829.41
2019-01-13T20:13:40.709Z,99836.88
2019-01-13T20:16:12.120Z,99838.53
2019-01-13T20:18:42.421Z,99832.84
2019-01-13T20:21:14.230Z,99850.23
2019-01-13T20:23:44.560Z,99853.84
2019-01-13T20:26:14.888Z,99849.61
2019-01-13T20:28:45.186Z,99853.95
2019-01-13T20:31:17.378Z,99853.95
2019-01-13T20:33:47.665Z,99858.70
2019-01-13T20:36:18.066Z,99857.35
2019-01-13T20:38:48.372Z,99864.11
2019-01-13T20:41:19.171Z,99862.86
2019-01-13T20:43:49.444Z,99876.78
2019-01-13T20:46:20.824Z,99870.98
2019-01-13T20:48:51.144Z,99873.80
2019-01-13T20:51:21.938Z,99872.26
2019-01-13T20:53:52.249Z,99877.75
2019-01-13T20:56:22.558Z,99878.87
2019-01-13T20:58:52.892Z,99887.63
2019-01-13T21:01:23.774Z,99889.50
2019-01-13T21:03:55.786Z,99889.23
2019-01-13T21:06:26.099Z,99888.03
2019-01-13T21:08:56.830Z,99895.24
2019-01-13T21:11:27.585Z,99886.74
2019-01-13T21:13:57.911Z,99887.94
2019-01-13T21:16:28.428Z,99900.67
2019-01-13T21:18:58.690Z,99895.66
2019-01-13T21:21:30.308Z,99902.09
2019-01-13T21:24:01.965Z,99910.43
2019-01-13T21:26:34.179Z,99908.57
2019-01-13T21:29:04.585Z,99915.89
2019-01-13T21:31:35.025Z,99913.24
2019-01-13T21:34:05.416Z,99906.65
2019-01-13T21:36:35.760Z,99913.81
2019-01-13T21:39:10.367Z,99911.33
2019-01-13T21:41:41.227Z,99916.75
2019-01-13T21:44:11.553Z,99921.55
2019-01-13T21:46:41.859Z,99923.97
2019-01-13T21:49:12.501Z,99924.88
2019-01-13T21:51:44.252Z,99934.70
2019-01-13T21:54:16.150Z,99937.17
2019-01-13T21:56:46.436Z,99945.81
2019-01-13T21:59:16.707Z,99939.59
2019-01-13T22:01:47.091Z,99945.21
2019-01-13T22:04:17.922Z,99947.03
2019-01-13T22:06:51.190Z,99954.08
2019-01-13T22:09:21.479Z,99946.70
2019-01-13T22:11:51.823Z,99959.74
2019-01-13T22:14:22.120Z,99954.72
2019-01-13T22:16:53.290Z,99958.64
2019-01-13T22:19:23.545Z,99953.56
2019-01-13T22:21:55.797Z,99964.14
2019-01-13T22:24:26.083Z,99967.12
2019-01-13T22:26:56.903Z,99970.38
2019-01-13T22:29:27.250Z,99958.09
2019-01-13T22:31:57.556Z,99956.78
2019-01-13T22:34:27.949Z,99951.16
2019-01-13T22:36:58.825Z,99959.55
2019-01-13T22:39:29.125Z,99967.22
2019-01-13T22:41:59.493Z,99964.36
2019-01-13T22:44:29.821Z,99976.58
2019-01-13T22:47:00.635Z,99976.86
2019-01-13T22:49:30.983Z,99985.22
2019-01-13T22:52:01.368Z,99991.16
2019-01-13T22:54:31.668Z,99987.55
2019-01-13T22:57:02.079Z,99990.34
2019-01-13T22:59:32.842Z,99993.60
2019-01-13T23:02:03.624Z,99994.66
2019-01-13T23:04:33.971Z,100000.86
2019-01-13T23:07:04.685Z,100000.95
2019-01-13T23:09:35.462Z,99992.70
2019-01-13T23:12:05.922Z,99988.95
2019-01-13T23:14:36.211Z,99992.21
2019-01-13T23:17:06.571Z,100000.34
2019-01-13T23:19:36.860Z,99997.83
2019-01-13T23:22:09.063Z,100004.95
2019-01-13T23:24:39.368Z,100000.63
2019-01-13T23:27:09.663Z,99991.20
2019-01-13T23:29:40.479Z,100000.63
2019-01-13T23:32:11.312Z,99994.33
2019-01-13T23:34:41.647Z,99999.58
2019-01-13T23:37:13.119Z,99995.92
2019-01-13T23:39:43.546Z,100005.75
2019-01-13T23:42:15.215Z,100007.67
2019-01-13T23:44:47.039Z,100009.95
2019-01-13T23:47:19.664Z,100011.09
2019-01-13T23:49:51.106Z,99998.25
2019-01-13T23:52:23.802Z,100005.98
2019-01-13T23:54:56.065Z,100009.59
2019-01-13T23:57:30.799Z,100002.63
